Impacts METAR Board
IDs:

KTPA - Tampa Intl Arpt, FL, US

Updated at: 1900 UTC 17 Jul 2018
Potential Impact None Slight Moderate High
Time 17/07Z 17/08Z 17/09Z 17/10Z 17/11Z 17/12Z 17/13Z 17/14Z 17/15Z 17/16Z 17/17Z 17/18Z 17/19Z
Temp83 83 83 83 83 84 86 87 89 87 90 89 90
Dewpt75 76 76 76 75 76 76 75 77 77 76 74 74
Altim30.07 30.07 30.06 30.07 30.08 30.09 30.10 30.10 30.10 30.11 30.09 30.08 30.07
VIS10 10 10 10 10 10 10 10 10 10 10 10 10
CIG-- -- 240 240 -- -- 250 250 250 75 250 75 230
CoverSCTSCTBKNBKNSCTSCTBKNBKNBKNBKNBKNBKNBKN
FltCatVFRVFRVFRVFRVFRVFRVFRVFRVFRVFRVFRVFRVFR
WX--------------------------
WDir210140140140170160170180190200240240230
WSpd4 4 3 4 4 5 6 11 10 5 7 10 12
WGst-- -- -- -- -- -- -- -- -- -- -- -- --
Raw hourly METARs
KTPA 170653Z 21004KT 10SM FEW025 SCT240 28/24 A3007 RMK AO2 SLP181 T02830239
KTPA 170753Z 14004KT 10SM FEW025 SCT240 28/24 A3007 RMK AO2 SLP181 T02830244
KTPA 170853Z 14003KT 10SM FEW026 BKN240 28/24 A3006 RMK AO2 SLP179 T02830244 56006
KTPA 170953Z 14004KT 10SM FEW026 BKN240 28/24 A3007 RMK AO2 SLP182 T02830244
KTPA 171053Z 17004KT 10SM SCT028 SCT240 28/24 A3008 RMK AO2 SLP184 TCU DSNT N AND W T02830239
KTPA 171153Z 16005KT 10SM FEW028 SCT250 29/24 A3009 RMK AO2 SLP187 CB DSNT W T02890244 10289 20278 53008
KTPA 171253Z 17006KT 10SM SCT030CB BKN250 30/24 A3010 RMK AO2 SLP192 CB S MOV NE T03000244
KTPA 171353Z 18011KT 10SM SCT025CB BKN250 31/24 A3010 RMK AO2 SLP193 CB S MOV NE T03060239
KTPA 171453Z 19010KT 10SM SCT025CB BKN250 32/25 A3010 RMK AO2 LTG DSNT NE SLP191 CB ALQDS MOV NE SHRA DSNT S T03170250 50003
KTPA 171553Z 20005KT 10SM SCT020CB SCT050 BKN075 BKN250 31/25 A3011 RMK AO2 RAB20E50 SLP194 CB W-NE MOV NE SHRA DSNT NE P0019 T03060250
KTPA 171653Z 24007KT 10SM FEW037 SCT075 BKN250 32/24 A3009 RMK AO2 SLP189 CB DSNT NE AND SE T03220244
KTPA 171753Z 24010KT 10SM SCT037CB BKN075 BKN250 32/23 A3008 RMK AO2 LTG DSNT SE SLP185 CB NE-SE MOV NE 60019 T03170233 10328 20267 58006
KTPA 171853Z 23012KT 10SM SCT040 SCT080 BKN230 32/23 A3007 RMK AO2 LTG DSNT NE SLP182 CB DSNT NE SHRA DSNT NE T03220233



Page loaded:  19:29 UTC  |   12:29 PM Pacific  |   01:29 PM Mountain  |   02:29 PM Central  |   03:29 PM Eastern

 

ADVISORIES

FORECASTS

FORECASTS

OBSERVATIONS

USER TOOLS

ABOUT US